sensor_id;sensor_type;location;lat;lon;timestamp;pressure;altitude;pressure_sealevel;temperature;humidity
60817;BME280;51921;51.518;-3.188;2023-04-25T00:00:05;101282.61;;;1.50;100.00
60817;BME280;51921;51.518;-3.188;2023-04-25T00:02:29;101282.79;;;1.56;100.00
60817;BME280;51921;51.518;-3.188;2023-04-25T00:04:55;101285.53;;;1.52;100.00
60817;BME280;51921;51.518;-3.188;2023-04-25T00:07:20;101289.34;;;1.93;100.00
60817;BME280;51921;51.518;-3.188;2023-04-25T00:09:46;101287.64;;;1.63;100.00
60817;BME280;51921;51.518;-3.188;2023-04-25T00:12:12;101292.34;;;1.73;100.00
60817;BME280;51921;51.518;-3.188;2023-04-25T00:14:37;101296.15;;;1.90;100.00
60817;BME280;51921;51.518;-3.188;2023-04-25T00:17:02;101297.48;;;2.21;100.00
60817;BME280;51921;51.518;-3.188;2023-04-25T00:19:28;101299.06;;;1.74;100.00
60817;BME280;51921;51.518;-3.188;2023-04-25T00:21:54;101299.48;;;1.89;100.00
60817;BME280;51921;51.518;-3.188;2023-04-25T00:24:19;101304.71;;;1.13;100.00
60817;BME280;51921;51.518;-3.188;2023-04-25T00:26:45;101305.61;;;1.59;100.00
60817;BME280;51921;51.518;-3.188;2023-04-25T00:29:10;101309.18;;;1.80;100.00
60817;BME280;51921;51.518;-3.188;2023-04-25T00:31:36;101309.11;;;1.45;100.00
60817;BME280;51921;51.518;-3.188;2023-04-25T00:34:02;101304.34;;;1.23;100.00
60817;BME280;51921;51.518;-3.188;2023-04-25T00:36:27;101308.61;;;1.20;100.00
60817;BME280;51921;51.518;-3.188;2023-04-25T00:38:53;101306.07;;;1.45;100.00
60817;BME280;51921;51.518;-3.188;2023-04-25T00:41:18;101307.18;;;2.06;100.00
60817;BME280;51921;51.518;-3.188;2023-04-25T00:43:44;101306.22;;;1.56;100.00
60817;BME280;51921;51.518;-3.188;2023-04-25T00:46:09;101311.56;;;1.22;100.00
60817;BME280;51921;51.518;-3.188;2023-04-25T00:48:34;101311.30;;;1.87;100.00
60817;BME280;51921;51.518;-3.188;2023-04-25T00:51:00;101319.07;;;1.61;100.00
60817;BME280;51921;51.518;-3.188;2023-04-25T00:53:27;101320.05;;;1.40;100.00
60817;BME280;51921;51.518;-3.188;2023-04-25T00:55:51;101317.25;;;1.25;100.00
60817;BME280;51921;51.518;-3.188;2023-04-25T00:58:17;101321.35;;;1.61;100.00
60817;BME280;51921;51.518;-3.188;2023-04-25T01:00:42;101322.59;;;1.46;100.00
60817;BME280;51921;51.518;-3.188;2023-04-25T01:03:07;101325.47;;;1.82;100.00
60817;BME280;51921;51.518;-3.188;2023-04-25T01:05:33;101326.25;;;1.28;100.00
60817;BME280;51921;51.518;-3.188;2023-04-25T01:07:59;101323.42;;;1.72;100.00
60817;BME280;51921;51.518;-3.188;2023-04-25T01:10:24;101319.83;;;1.82;100.00
60817;BME280;51921;51.518;-3.188;2023-04-25T01:12:50;101320.37;;;2.70;100.00
60817;BME280;51921;51.518;-3.188;2023-04-25T01:15:15;101326.64;;;2.51;100.00
60817;BME280;51921;51.518;-3.188;2023-04-25T01:17:40;101324.74;;;2.41;100.00
60817;BME280;51921;51.518;-3.188;2023-04-25T01:20:07;101325.66;;;2.18;100.00
60817;BME280;51921;51.518;-3.188;2023-04-25T01:22:32;101328.89;;;1.68;100.00
60817;BME280;51921;51.518;-3.188;2023-04-25T01:24:57;101330.43;;;2.37;100.00
60817;BME280;51921;51.518;-3.188;2023-04-25T01:27:22;101329.69;;;2.42;100.00
60817;BME280;51921;51.518;-3.188;2023-04-25T01:29:48;101331.37;;;2.19;100.00
60817;BME280;51921;51.518;-3.188;2023-04-25T01:32:13;101333.46;;;2.75;100.00
60817;BME280;51921;51.518;-3.188;2023-04-25T01:34:39;101333.23;;;2.26;100.00
60817;BME280;51921;51.518;-3.188;2023-04-25T01:37:04;101330.53;;;1.36;100.00
60817;BME280;51921;51.518;-3.188;2023-04-25T01:39:30;101331.38;;;1.23;100.00
60817;BME280;51921;51.518;-3.188;2023-04-25T01:41:56;101332.26;;;1.13;100.00
60817;BME280;51921;51.518;-3.188;2023-04-25T01:44:21;101333.38;;;1.42;100.00
60817;BME280;51921;51.518;-3.188;2023-04-25T01:46:46;101338.16;;;1.33;100.00
60817;BME280;51921;51.518;-3.188;2023-04-25T01:49:12;101341.27;;;1.47;100.00
60817;BME280;51921;51.518;-3.188;2023-04-25T01:51:37;101349.08;;;1.07;100.00
60817;BME280;51921;51.518;-3.188;2023-04-25T01:54:03;101348.03;;;1.19;100.00
60817;BME280;51921;51.518;-3.188;2023-04-25T01:56:30;101344.36;;;1.19;100.00
60817;BME280;51921;51.518;-3.188;2023-04-25T01:58:54;101344.98;;;1.54;100.00
60817;BME280;51921;51.518;-3.188;2023-04-25T02:01:19;101343.15;;;1.32;100.00
60817;BME280;51921;51.518;-3.188;2023-04-25T02:03:45;101340.81;;;1.44;100.00
60817;BME280;51921;51.518;-3.188;2023-04-25T02:06:10;101343.71;;;1.11;100.00
60817;BME280;51921;51.518;-3.188;2023-04-25T02:08:36;101342.21;;;0.66;100.00
60817;BME280;51921;51.518;-3.188;2023-04-25T02:11:01;101346.64;;;0.82;100.00
60817;BME280;51921;51.518;-3.188;2023-04-25T02:13:27;101344.71;;;0.93;100.00
60817;BME280;51921;51.518;-3.188;2023-04-25T02:15:53;101346.49;;;0.82;100.00
60817;BME280;51921;51.518;-3.188;2023-04-25T02:18:18;101348.70;;;0.57;100.00
60817;BME280;51921;51.518;-3.188;2023-04-25T02:20:44;101351.97;;;1.26;100.00
60817;BME280;51921;51.518;-3.188;2023-04-25T02:23:10;101353.95;;;1.00;100.00
60817;BME280;51921;51.518;-3.188;2023-04-25T02:25:35;101358.51;;;1.21;100.00
60817;BME280;51921;51.518;-3.188;2023-04-25T02:28:01;101357.85;;;0.85;100.00
60817;BME280;51921;51.518;-3.188;2023-04-25T02:30:26;101358.59;;;0.95;100.00
60817;BME280;51921;51.518;-3.188;2023-04-25T02:32:52;101351.21;;;2.02;100.00
60817;BME280;51921;51.518;-3.188;2023-04-25T02:35:18;101358.48;;;1.16;100.00
60817;BME280;51921;51.518;-3.188;2023-04-25T02:37:43;101361.37;;;1.04;100.00
60817;BME280;51921;51.518;-3.188;2023-04-25T02:40:09;101363.65;;;0.98;100.00
60817;BME280;51921;51.518;-3.188;2023-04-25T02:42:34;101360.10;;;0.92;100.00
60817;BME280;51921;51.518;-3.188;2023-04-25T02:45:00;101360.63;;;1.23;100.00
60817;BME280;51921;51.518;-3.188;2023-04-25T02:47:26;101361.28;;;0.98;100.00
60817;BME280;51921;51.518;-3.188;2023-04-25T02:49:51;101358.18;;;0.83;100.00
60817;BME280;51921;51.518;-3.188;2023-04-25T02:52:17;101363.62;;;1.05;100.00
60817;BME280;51921;51.518;-3.188;2023-04-25T02:54:42;101364.27;;;0.76;100.00
60817;BME280;51921;51.518;-3.188;2023-04-25T02:57:08;101364.63;;;1.08;100.00
60817;BME280;51921;51.518;-3.188;2023-04-25T02:59:34;101370.93;;;1.33;100.00
60817;BME280;51921;51.518;-3.188;2023-04-25T03:01:59;101374.85;;;1.51;100.00
60817;BME280;51921;51.518;-3.188;2023-04-25T03:04:25;101370.29;;;2.20;100.00
60817;BME280;51921;51.518;-3.188;2023-04-25T03:06:51;101377.69;;;1.09;100.00
60817;BME280;51921;51.518;-3.188;2023-04-25T03:09:16;101378.16;;;0.95;100.00
60817;BME280;51921;51.518;-3.188;2023-04-25T03:11:43;101377.46;;;1.28;100.00
60817;BME280;51921;51.518;-3.188;2023-04-25T03:14:07;101379.26;;;0.58;100.00
60817;BME280;51921;51.518;-3.188;2023-04-25T03:16:33;101380.17;;;0.36;100.00
60817;BME280;51921;51.518;-3.188;2023-04-25T03:18:59;101384.42;;;0.24;100.00
60817;BME280;51921;51.518;-3.188;2023-04-25T03:21:24;101386.16;;;0.24;100.00
60817;BME280;51921;51.518;-3.188;2023-04-25T03:23:50;101391.43;;;0.11;100.00
60817;BME280;51921;51.518;-3.188;2023-04-25T03:26:16;101391.55;;;0.84;100.00
60817;BME280;51921;51.518;-3.188;2023-04-25T03:28:41;101390.47;;;0.69;100.00
60817;BME280;51921;51.518;-3.188;2023-04-25T03:31:07;101390.19;;;0.29;100.00
60817;BME280;51921;51.518;-3.188;2023-04-25T03:33:32;101390.69;;;0.25;100.00
60817;BME280;51921;51.518;-3.188;2023-04-25T03:35:58;101392.69;;;0.87;100.00
60817;BME280;51921;51.518;-3.188;2023-04-25T03:38:24;101396.22;;;0.36;100.00
60817;BME280;51921;51.518;-3.188;2023-04-25T03:40:50;101398.38;;;0.30;100.00
60817;BME280;51921;51.518;-3.188;2023-04-25T03:43:14;101398.66;;;0.80;100.00
60817;BME280;51921;51.518;-3.188;2023-04-25T03:45:40;101399.39;;;1.59;100.00
60817;BME280;51921;51.518;-3.188;2023-04-25T03:48:06;101403.39;;;1.96;100.00
60817;BME280;51921;51.518;-3.188;2023-04-25T03:50:32;101407.79;;;2.99;100.00
60817;BME280;51921;51.518;-3.188;2023-04-25T03:52:58;101407.27;;;3.71;98.68
60817;BME280;51921;51.518;-3.188;2023-04-25T03:55:23;101411.22;;;2.64;100.00
60817;BME280;51921;51.518;-3.188;2023-04-25T03:57:48;101405.89;;;3.58;97.97
60817;BME280;51921;51.518;-3.188;2023-04-25T04:00:15;101414.20;;;2.67;95.34
60817;BME280;51921;51.518;-3.188;2023-04-25T04:02:40;101415.51;;;1.07;100.00
60817;BME280;51921;51.518;-3.188;2023-04-25T04:05:06;101419.10;;;0.32;100.00
60817;BME280;51921;51.518;-3.188;2023-04-25T04:07:31;101419.14;;;0.01;100.00
60817;BME280;51921;51.518;-3.188;2023-04-25T04:09:57;101424.75;;;0.24;100.00
60817;BME280;51921;51.518;-3.188;2023-04-25T04:12:22;101423.18;;;-0.11;100.00
60817;BME280;51921;51.518;-3.188;2023-04-25T04:14:48;101417.53;;;-0.08;100.00
60817;BME280;51921;51.518;-3.188;2023-04-25T04:17:13;101421.08;;;-0.22;100.00
60817;BME280;51921;51.518;-3.188;2023-04-25T04:19:39;101422.84;;;-0.46;100.00
60817;BME280;51921;51.518;-3.188;2023-04-25T04:22:05;101424.03;;;-0.17;100.00
60817;BME280;51921;51.518;-3.188;2023-04-25T04:24:30;101427.80;;;-0.15;100.00
60817;BME280;51921;51.518;-3.188;2023-04-25T04:26:56;101428.03;;;-0.39;100.00
60817;BME280;51921;51.518;-3.188;2023-04-25T04:29:21;101432.98;;;-0.42;100.00
60817;BME280;51921;51.518;-3.188;2023-04-25T04:31:48;101438.13;;;-0.33;100.00
60817;BME280;51921;51.518;-3.188;2023-04-25T04:34:13;101442.26;;;-0.76;100.00
60817;BME280;51921;51.518;-3.188;2023-04-25T04:36:39;101445.36;;;-0.99;100.00
60817;BME280;51921;51.518;-3.188;2023-04-25T04:39:05;101449.40;;;-0.89;100.00
60817;BME280;51921;51.518;-3.188;2023-04-25T04:41:30;101449.90;;;-0.58;100.00
60817;BME280;51921;51.518;-3.188;2023-04-25T04:43:55;101452.14;;;0.22;100.00
60817;BME280;51921;51.518;-3.188;2023-04-25T04:46:21;101450.56;;;-0.02;100.00
60817;BME280;51921;51.518;-3.188;2023-04-25T04:48:47;101454.55;;;-0.58;100.00
60817;BME280;51921;51.518;-3.188;2023-04-25T04:51:13;101458.91;;;-0.66;100.00
60817;BME280;51921;51.518;-3.188;2023-04-25T04:53:38;101459.16;;;-0.71;100.00
60817;BME280;51921;51.518;-3.188;2023-04-25T04:56:04;101463.72;;;-0.75;100.00
60817;BME280;51921;51.518;-3.188;2023-04-25T04:58:28;101468.63;;;-0.70;100.00
60817;BME280;51921;51.518;-3.188;2023-04-25T05:00:54;101473.92;;;-0.83;100.00
60817;BME280;51921;51.518;-3.188;2023-04-25T05:03:19;101476.80;;;-0.39;100.00
60817;BME280;51921;51.518;-3.188;2023-04-25T05:05:45;101478.54;;;-1.16;100.00
60817;BME280;51921;51.518;-3.188;2023-04-25T05:08:11;101482.34;;;-1.46;100.00
60817;BME280;51921;51.518;-3.188;2023-04-25T05:10:36;101484.79;;;-0.76;100.00
60817;BME280;51921;51.518;-3.188;2023-04-25T05:13:02;101486.60;;;-1.07;100.00
60817;BME280;51921;51.518;-3.188;2023-04-25T05:15:28;101491.32;;;-0.97;100.00
60817;BME280;51921;51.518;-3.188;2023-04-25T05:17:53;101494.13;;;-1.27;100.00
60817;BME280;51921;51.518;-3.188;2023-04-25T05:20:19;101497.88;;;-1.07;100.00
60817;BME280;51921;51.518;-3.188;2023-04-25T05:22:45;101500.82;;;-0.85;100.00
60817;BME280;51921;51.518;-3.188;2023-04-25T05:25:11;101499.01;;;-0.59;100.00
60817;BME280;51921;51.518;-3.188;2023-04-25T05:27:36;101498.40;;;-0.19;100.00
60817;BME280;51921;51.518;-3.188;2023-04-25T05:30:02;101499.17;;;-0.19;100.00
60817;BME280;51921;51.518;-3.188;2023-04-25T05:32:27;101498.51;;;0.70;100.00
60817;BME280;51921;51.518;-3.188;2023-04-25T05:34:53;101505.23;;;0.19;100.00
60817;BME280;51921;51.518;-3.188;2023-04-25T05:37:19;101513.51;;;1.79;100.00
60817;BME280;51921;51.518;-3.188;2023-04-25T05:39:44;101516.22;;;1.48;100.00
60817;BME280;51921;51.518;-3.188;2023-04-25T05:42:10;101519.17;;;0.28;100.00
60817;BME280;51921;51.518;-3.188;2023-04-25T05:44:36;101525.23;;;-0.21;100.00
60817;BME280;51921;51.518;-3.188;2023-04-25T05:47:01;101527.93;;;-1.11;100.00
60817;BME280;51921;51.518;-3.188;2023-04-25T05:49:27;101530.97;;;-0.73;100.00
60817;BME280;51921;51.518;-3.188;2023-04-25T05:51:52;101528.41;;;-0.29;100.00
60817;BME280;51921;51.518;-3.188;2023-04-25T05:54:18;101528.51;;;-0.95;100.00
60817;BME280;51921;51.518;-3.188;2023-04-25T05:56:44;101528.96;;;-0.52;100.00
60817;BME280;51921;51.518;-3.188;2023-04-25T05:59:09;101533.27;;;-0.84;100.00
60817;BME280;51921;51.518;-3.188;2023-04-25T06:01:35;101535.76;;;-0.71;100.00
60817;BME280;51921;51.518;-3.188;2023-04-25T06:04:01;101534.31;;;-0.20;100.00
60817;BME280;51921;51.518;-3.188;2023-04-25T06:06:26;101533.69;;;-0.01;100.00
60817;BME280;51921;51.518;-3.188;2023-04-25T06:08:52;101535.62;;;-0.98;100.00
60817;BME280;51921;51.518;-3.188;2023-04-25T06:11:18;101536.51;;;-0.70;100.00
60817;BME280;51921;51.518;-3.188;2023-04-25T06:13:43;101537.14;;;-0.70;100.00
60817;BME280;51921;51.518;-3.188;2023-04-25T06:16:08;101533.67;;;0.11;100.00
60817;BME280;51921;51.518;-3.188;2023-04-25T06:18:34;101534.28;;;-0.24;100.00
60817;BME280;51921;51.518;-3.188;2023-04-25T06:21:00;101533.02;;;-0.34;100.00
60817;BME280;51921;51.518;-3.188;2023-04-25T06:23:26;101533.55;;;-0.37;100.00
60817;BME280;51921;51.518;-3.188;2023-04-25T06:25:51;101532.17;;;-0.48;100.00
60817;BME280;51921;51.518;-3.188;2023-04-25T06:28:17;101533.10;;;-0.58;100.00
60817;BME280;51921;51.518;-3.188;2023-04-25T06:30:43;101531.99;;;-0.63;100.00
60817;BME280;51921;51.518;-3.188;2023-04-25T06:33:08;101537.60;;;-0.58;100.00
60817;BME280;51921;51.518;-3.188;2023-04-25T06:35:34;101536.16;;;-0.53;100.00
60817;BME280;51921;51.518;-3.188;2023-04-25T06:37:59;101535.59;;;-0.84;100.00
60817;BME280;51921;51.518;-3.188;2023-04-25T06:40:25;101533.47;;;-0.49;100.00
60817;BME280;51921;51.518;-3.188;2023-04-25T06:42:51;101537.03;;;-0.26;100.00
60817;BME280;51921;51.518;-3.188;2023-04-25T06:45:16;101538.92;;;-0.80;100.00
60817;BME280;51921;51.518;-3.188;2023-04-25T06:47:42;101531.60;;;0.14;100.00
60817;BME280;51921;51.518;-3.188;2023-04-25T06:50:08;101527.31;;;-0.35;100.00
60817;BME280;51921;51.518;-3.188;2023-04-25T06:52:33;101531.40;;;-0.47;100.00
60817;BME280;51921;51.518;-3.188;2023-04-25T06:54:59;101533.49;;;-0.34;100.00
60817;BME280;51921;51.518;-3.188;2023-04-25T06:57:24;101529.77;;;0.10;100.00
60817;BME280;51921;51.518;-3.188;2023-04-25T06:59:50;101530.74;;;0.36;100.00
60817;BME280;51921;51.518;-3.188;2023-04-25T07:02:15;101532.76;;;0.24;100.00
60817;BME280;51921;51.518;-3.188;2023-04-25T07:04:41;101542.14;;;-0.47;100.00
60817;BME280;51921;51.518;-3.188;2023-04-25T07:07:07;101537.18;;;0.37;100.00
60817;BME280;51921;51.518;-3.188;2023-04-25T07:09:33;101537.60;;;-0.28;100.00
60817;BME280;51921;51.518;-3.188;2023-04-25T07:11:58;101539.68;;;0.13;100.00
60817;BME280;51921;51.518;-3.188;2023-04-25T07:14:24;101543.60;;;0.46;100.00
60817;BME280;51921;51.518;-3.188;2023-04-25T07:16:49;101547.11;;;0.27;100.00
60817;BME280;51921;51.518;-3.188;2023-04-25T07:19:15;101554.09;;;0.36;100.00
60817;BME280;51921;51.518;-3.188;2023-04-25T07:21:40;101551.57;;;0.86;100.00
60817;BME280;51921;51.518;-3.188;2023-04-25T07:24:06;101556.38;;;0.47;100.00
60817;BME280;51921;51.518;-3.188;2023-04-25T07:26:31;101555.90;;;0.62;100.00
60817;BME280;51921;51.518;-3.188;2023-04-25T07:28:57;101557.63;;;0.20;100.00
60817;BME280;51921;51.518;-3.188;2023-04-25T07:31:23;101556.71;;;0.35;100.00
60817;BME280;51921;51.518;-3.188;2023-04-25T07:33:48;101555.42;;;1.69;100.00
60817;BME280;51921;51.518;-3.188;2023-04-25T07:36:13;101562.70;;;2.16;91.62
60817;BME280;51921;51.518;-3.188;2023-04-25T07:38:38;101562.75;;;1.89;90.04
60817;BME280;51921;51.518;-3.188;2023-04-25T07:41:04;101557.19;;;1.42;95.23
60817;BME280;51921;51.518;-3.188;2023-04-25T07:43:29;101559.72;;;3.24;87.04
60817;BME280;51921;51.518;-3.188;2023-04-25T07:45:56;101564.60;;;2.92;82.77
60817;BME280;51921;51.518;-3.188;2023-04-25T07:48:21;101560.76;;;2.51;84.50
60817;BME280;51921;51.518;-3.188;2023-04-25T07:50:46;101560.33;;;2.77;80.42
60817;BME280;51921;51.518;-3.188;2023-04-25T07:53:12;101557.62;;;3.49;79.78
60817;BME280;51921;51.518;-3.188;2023-04-25T07:55:37;101557.94;;;2.85;79.02
60817;BME280;51921;51.518;-3.188;2023-04-25T07:58:03;101555.18;;;3.52;78.56
60817;BME280;51921;51.518;-3.188;2023-04-25T08:00:28;101555.27;;;4.18;71.62
60817;BME280;51921;51.518;-3.188;2023-04-25T08:02:54;101557.99;;;2.83;80.45
60817;BME280;51921;51.518;-3.188;2023-04-25T08:05:19;101560.48;;;2.93;76.31
60817;BME280;51921;51.518;-3.188;2023-04-25T08:07:45;101557.04;;;4.90;72.70
60817;BME280;51921;51.518;-3.188;2023-04-25T08:10:11;101558.17;;;3.45;76.76
60817;BME280;51921;51.518;-3.188;2023-04-25T08:12:36;101554.99;;;3.05;76.67
60817;BME280;51921;51.518;-3.188;2023-04-25T08:15:04;101554.74;;;3.21;77.66
60817;BME280;51921;51.518;-3.188;2023-04-25T08:17:27;101555.42;;;4.23;71.86
60817;BME280;51921;51.518;-3.188;2023-04-25T08:19:53;101556.73;;;4.24;73.04
60817;BME280;51921;51.518;-3.188;2023-04-25T08:22:18;101557.63;;;3.49;78.32
60817;BME280;51921;51.518;-3.188;2023-04-25T08:24:44;101556.09;;;3.51;77.14
60817;BME280;51921;51.518;-3.188;2023-04-25T08:27:09;101550.11;;;3.57;73.21
60817;BME280;51921;51.518;-3.188;2023-04-25T08:29:35;101549.63;;;4.24;71.05
60817;BME280;51921;51.518;-3.188;2023-04-25T08:32:00;101551.72;;;4.03;71.02
60817;BME280;51921;51.518;-3.188;2023-04-25T08:34:26;101550.91;;;4.23;72.24
60817;BME280;51921;51.518;-3.188;2023-04-25T08:36:51;101552.83;;;3.53;72.38
60817;BME280;51921;51.518;-3.188;2023-04-25T08:39:17;101555.81;;;3.74;75.67
60817;BME280;51921;51.518;-3.188;2023-04-25T08:41:42;101553.64;;;4.04;77.30
60817;BME280;51921;51.518;-3.188;2023-04-25T08:44:10;101554.42;;;3.85;75.94
60817;BME280;51921;51.518;-3.188;2023-04-25T08:46:33;101556.17;;;3.87;75.73
60817;BME280;51921;51.518;-3.188;2023-04-25T08:49:01;101556.13;;;4.54;69.89
60817;BME280;51921;51.518;-3.188;2023-04-25T08:51:25;101558.56;;;3.18;73.98
60817;BME280;51921;51.518;-3.188;2023-04-25T08:53:52;101560.28;;;4.37;71.45
60817;BME280;51921;51.518;-3.188;2023-04-25T08:56:16;101553.40;;;5.50;63.47
60817;BME280;51921;51.518;-3.188;2023-04-25T08:58:41;101551.67;;;4.79;64.94
60817;BME280;51921;51.518;-3.188;2023-04-25T09:01:07;101550.02;;;4.14;68.13
60817;BME280;51921;51.518;-3.188;2023-04-25T09:03:32;101546.39;;;4.65;64.87
60817;BME280;51921;51.518;-3.188;2023-04-25T09:05:58;101557.30;;;4.63;66.09
60817;BME280;51921;51.518;-3.188;2023-04-25T09:08:23;101552.81;;;4.02;68.16
60817;BME280;51921;51.518;-3.188;2023-04-25T09:10:49;101556.15;;;3.41;73.33
60817;BME280;51921;51.518;-3.188;2023-04-25T09:13:23;101550.09;;;3.66;73.36
60817;BME280;51921;51.518;-3.188;2023-04-25T09:15:47;101551.30;;;4.74;66.39
60817;BME280;51921;51.518;-3.188;2023-04-25T09:18:05;101552.99;;;3.63;74.04
60817;BME280;51921;51.518;-3.188;2023-04-25T09:20:30;101556.98;;;3.04;77.32
60817;BME280;51921;51.518;-3.188;2023-04-25T09:23:01;101547.40;;;5.46;68.61
60817;BME280;51921;51.518;-3.188;2023-04-25T09:25:22;101548.01;;;5.82;65.07
60817;BME280;51921;51.518;-3.188;2023-04-25T09:27:51;101546.67;;;6.54;58.32
60817;BME280;51921;51.518;-3.188;2023-04-25T09:30:16;101542.53;;;6.37;59.60
60817;BME280;51921;51.518;-3.188;2023-04-25T09:32:38;101549.32;;;4.07;67.98
60817;BME280;51921;51.518;-3.188;2023-04-25T09:35:04;101551.25;;;3.89;75.10
60817;BME280;51921;51.518;-3.188;2023-04-25T09:37:30;101554.90;;;4.78;70.90
60817;BME280;51921;51.518;-3.188;2023-04-25T09:39:56;101557.60;;;4.81;71.70
60817;BME280;51921;51.518;-3.188;2023-04-25T09:42:22;101549.32;;;5.99;74.25
60817;BME280;51921;51.518;-3.188;2023-04-25T09:44:46;101547.00;;;7.20;63.69
60817;BME280;51921;51.518;-3.188;2023-04-25T09:47:11;101555.54;;;3.60;69.85
60817;BME280;51921;51.518;-3.188;2023-04-25T09:49:39;101552.88;;;4.61;70.27
60817;BME280;51921;51.518;-3.188;2023-04-25T09:52:02;101550.80;;;5.29;66.39
60817;BME280;51921;51.518;-3.188;2023-04-25T09:54:28;101549.12;;;7.49;61.09
60817;BME280;51921;51.518;-3.188;2023-04-25T09:56:53;101552.71;;;7.62;54.52
60817;BME280;51921;51.518;-3.188;2023-04-25T09:59:20;101550.28;;;7.57;51.43
60817;BME280;51921;51.518;-3.188;2023-04-25T10:01:45;101558.79;;;5.75;52.60
60817;BME280;51921;51.518;-3.188;2023-04-25T10:04:11;101561.52;;;4.74;55.26
60817;BME280;51921;51.518;-3.188;2023-04-25T10:06:35;101553.04;;;5.91;57.66
60817;BME280;51921;51.518;-3.188;2023-04-25T10:09:01;101554.67;;;5.10;55.07
60817;BME280;51921;51.518;-3.188;2023-04-25T10:11:26;101558.33;;;4.73;55.91
60817;BME280;51921;51.518;-3.188;2023-04-25T10:13:52;101561.97;;;7.36;52.25
60817;BME280;51921;51.518;-3.188;2023-04-25T10:16:18;101558.06;;;7.59;51.98
60817;BME280;51921;51.518;-3.188;2023-04-25T10:18:42;101557.68;;;7.94;49.97
60817;BME280;51921;51.518;-3.188;2023-04-25T10:21:08;101563.38;;;4.69;56.84
60817;BME280;51921;51.518;-3.188;2023-04-25T10:23:34;101568.31;;;3.90;56.99
60817;BME280;51921;51.518;-3.188;2023-04-25T10:26:00;101572.25;;;3.46;59.78
60817;BME280;51921;51.518;-3.188;2023-04-25T10:28:25;101568.02;;;3.83;60.34
60817;BME280;51921;51.518;-3.188;2023-04-25T10:30:59;101568.48;;;3.96;60.66
60817;BME280;51921;51.518;-3.188;2023-04-25T10:33:17;101570.39;;;4.01;61.76
60817;BME280;51921;51.518;-3.188;2023-04-25T10:35:41;101566.40;;;4.67;60.71
60817;BME280;51921;51.518;-3.188;2023-04-25T10:38:10;101573.75;;;6.95;55.56
60817;BME280;51921;51.518;-3.188;2023-04-25T10:40:33;101573.03;;;3.91;58.70
60817;BME280;51921;51.518;-3.188;2023-04-25T10:45:23;101569.83;;;4.78;56.13
60817;BME280;51921;51.518;-3.188;2023-04-25T10:47:49;101574.32;;;5.51;55.56
60817;BME280;51921;51.518;-3.188;2023-04-25T10:50:15;101578.16;;;7.15;52.17
60817;BME280;51921;51.518;-3.188;2023-04-25T10:52:40;101572.86;;;5.48;50.61
60817;BME280;51921;51.518;-3.188;2023-04-25T10:55:06;101576.61;;;6.06;50.24
60817;BME280;51921;51.518;-3.188;2023-04-25T10:57:36;101574.45;;;4.91;54.72
60817;BME280;51921;51.518;-3.188;2023-04-25T11:00:02;101573.50;;;7.40;49.64
60817;BME280;51921;51.518;-3.188;2023-04-25T11:02:26;101571.86;;;5.21;48.12
60817;BME280;51921;51.518;-3.188;2023-04-25T11:04:48;101578.08;;;6.89;47.19
60817;BME280;51921;51.518;-3.188;2023-04-25T11:07:19;101574.47;;;8.12;45.59
60817;BME280;51921;51.518;-3.188;2023-04-25T11:09:40;101568.88;;;8.18;43.73
60817;BME280;51921;51.518;-3.188;2023-04-25T11:12:06;101576.72;;;8.40;42.66
60817;BME280;51921;51.518;-3.188;2023-04-25T11:14:30;101585.39;;;5.47;42.34
60817;BME280;51921;51.518;-3.188;2023-04-25T11:17:00;101569.10;;;8.16;41.45
60817;BME280;51921;51.518;-3.188;2023-04-25T11:19:21;101576.94;;;5.87;43.42
60817;BME280;51921;51.518;-3.188;2023-04-25T11:21:46;101570.67;;;8.37;42.66
60817;BME280;51921;51.518;-3.188;2023-04-25T11:24:12;101581.33;;;4.97;42.28
60817;BME280;51921;51.518;-3.188;2023-04-25T11:26:37;101577.80;;;6.26;43.31
60817;BME280;51921;51.518;-3.188;2023-04-25T11:29:03;101573.47;;;8.13;42.19
60817;BME280;51921;51.518;-3.188;2023-04-25T11:31:29;101575.83;;;7.81;46.47
60817;BME280;51921;51.518;-3.188;2023-04-25T11:33:56;101576.44;;;4.89;46.86
60817;BME280;51921;51.518;-3.188;2023-04-25T11:36:19;101585.43;;;5.12;47.85
60817;BME280;51921;51.518;-3.188;2023-04-25T11:38:45;101584.28;;;4.83;47.14
60817;BME280;51921;51.518;-3.188;2023-04-25T11:41:11;101579.36;;;5.44;47.47
60817;BME280;51921;51.518;-3.188;2023-04-25T11:43:36;101585.87;;;6.01;48.12
60817;BME280;51921;51.518;-3.188;2023-04-25T11:46:06;101582.65;;;6.42;46.65
60817;BME280;51921;51.518;-3.188;2023-04-25T11:48:27;101584.34;;;5.65;46.11
60817;BME280;51921;51.518;-3.188;2023-04-25T11:50:54;101578.25;;;6.90;46.95
60817;BME280;51921;51.518;-3.188;2023-04-25T11:53:18;101580.61;;;5.65;45.31
60817;BME280;51921;51.518;-3.188;2023-04-25T11:55:44;101579.91;;;6.46;47.48
60817;BME280;51921;51.518;-3.188;2023-04-25T11:58:09;101580.60;;;4.86;44.62
60817;BME280;51921;51.518;-3.188;2023-04-25T12:00:35;101578.04;;;4.81;45.47
60817;BME280;51921;51.518;-3.188;2023-04-25T12:03:00;101574.87;;;5.32;46.44
60817;BME280;51921;51.518;-3.188;2023-04-25T12:05:28;101572.35;;;7.02;44.18
60817;BME280;51921;51.518;-3.188;2023-04-25T12:07:51;101566.51;;;6.29;45.66
60817;BME280;51921;51.518;-3.188;2023-04-25T12:10:18;101567.33;;;5.78;44.17
60817;BME280;51921;51.518;-3.188;2023-04-25T12:12:44;101572.06;;;7.05;43.55
60817;BME280;51921;51.518;-3.188;2023-04-25T12:15:09;101570.93;;;8.71;42.14
60817;BME280;51921;51.518;-3.188;2023-04-25T12:17:33;101573.75;;;7.82;36.18
60817;BME280;51921;51.518;-3.188;2023-04-25T12:19:59;101568.17;;;8.71;35.90
60817;BME280;51921;51.518;-3.188;2023-04-25T12:22:24;101573.14;;;8.11;33.83
60817;BME280;51921;51.518;-3.188;2023-04-25T12:24:50;101569.42;;;8.89;33.45
60817;BME280;51921;51.518;-3.188;2023-04-25T12:27:16;101575.90;;;5.72;32.70
60817;BME280;51921;51.518;-3.188;2023-04-25T12:29:51;101571.93;;;6.40;34.65
60817;BME280;51921;51.518;-3.188;2023-04-25T12:32:06;101566.25;;;5.31;36.60
60817;BME280;51921;51.518;-3.188;2023-04-25T12:34:32;101570.45;;;6.04;37.64